Skip Navigation Links
NOAA logo - Click to go to the NOAA homepage
NOAA's National Weather Service
Alaska Aviation Weather Unit
  NWS logo - Click to go to the NWS homepage
Left Navbar Graphic     09 AKDT = 17 GMT

   
NOAA is celebrating 200 years of science, service, and stewardship. Visit the NOAA 200th celebration Web site to learn more.
USA.gov is the U.S. Government's official Web portal to all Federal, state and local government Web resources and services.
Facebook
NWS on Facebook

Important Change Regarding the AAWU Web Presence

 

Over the last several months, the AAWU has been working to navigate its webpages to a nationally supported server. Security, as well as other needs, have necessitated the change.  In the process, we have made an effort to enhance the functionality of our website, as well as some of our products. As of June 20, 2017, aawu.arh.noaa.gov will be discontinued. The new AAWU web address is weather.gov/aawu. It is now live and will run in-parallel with the old site until it is discontinued. Please send any feedback or questions regarding the new webpages to nws.ar.aawu.webauthors@noaa.gov.  Thank you for your patience during this time of transition.
AAWU Home :: Display TAF Add Bookmark
METAR PAIG 271156Z AUTO 05005KT 10SM BKN055 04/02 A2997 RMK AO2 SLP160
     60000 70016 T00440022 10056 20022 56002 $=

METAR PAIG 271256Z AUTO 04004KT 10SM SCT080 04/01 A2997 RMK AO2 SLP159
     T00390011 $=

METAR PAIG 271356Z AUTO 04006KT 10SM FEW080 OVC110 03/02 A2996 RMK AO2
     SLP157 T00330017 $=

METAR PAIG 271456Z AUTO 04006KT 10SM CLR 04/02 A2996 RMK AO2 SLP157
 T00440017 55003 $=

METAR PAIG 271556Z AUTO 05009KT 10SM BKN070 06/02 A2996 RMK AO2 SLP156
     T00560022 $=

METAR PAIG 271656Z AUTO 04009KT 10SM CLR 06/03 A2995 RMK AO2 SLP154
     T00610028 $=


NOAA's National Weather Service
Alaska Aviation Weather Unit
6930 Sand Lake Road
Anchorage, AK 99502-1845
Disclaimer
Credits
Glossary
Privacy Policy
About Us
Career Opportunities
Contact AAWU Internet Services Site last modified: April, 17th 2012